< Typhoon 199624 1996 Season Typhoon 199626 >
Typhoon 199625 (ERNIE)
General InformationTrack Information on Google MapsDetailed Wind InformationList of All Images || Disaster Info.ResourceGoogle EarthGE AnimationAtom FeedGeoJSON
Detalied Best Track (Time Zone = UTC)
Year Month Day Hour Lat. Long. Pressure (hPa) Wind (kt) Class Image Chart
1996 11 7 12 16.4 125.5 1004 0 2 Image Chart
1996 11 7 18 16.8 124.2 1002 0 2 Image Chart
1996 11 8 00 17.2 122.9 1002 0 2 Image Chart
1996 11 8 06 16.9 121.4 1000 0 2 Image Chart
1996 11 8 12 18.8 120.1 1000 0 2 Image Chart
1996 11 8 18 19.1 119.4 998 0 2 Image Chart
1996 11 9 00 19.3 118.8 998 0 2 Image Chart
1996 11 9 06 19.3 118.3 998 0 2 Image Chart
1996 11 9 12 19.4 118.1 996 35 3 Image Chart
1996 11 9 18 19.5 117.9 996 35 3 Image Chart
1996 11 10 00 19.7 117.9 996 40 3 Image Chart
1996 11 10 06 19.9 117.8 996 40 3 Image Chart
1996 11 10 12 20.1 117.8 996 40 3 Image Chart
1996 11 10 18 20.3 118.0 996 40 3 Image Chart
1996 11 11 00 20.3 118.1 996 40 3 Image Chart
1996 11 11 06 19.8 118.5 992 40 3 Image Chart
1996 11 11 12 19.5 119.0 992 40 3 Image Chart
1996 11 11 18 19.3 119.6 992 40 3 Image Chart
1996 11 12 00 19.1 120.0 992 40 3 Image Chart
1996 11 12 06 18.7 120.1 994 40 3 Image Chart
1996 11 12 12 18.1 120.0 994 40 3 Image Chart
1996 11 12 18 17.2 119.7 996 35 3 Image Chart
1996 11 13 00 16.4 118.9 996 35 3 Image Chart
1996 11 13 06 15.9 118.2 998 35 3 Image Chart
1996 11 13 12 15.6 117.4 998 35 3 Image Chart
1996 11 13 18 15.1 116.2 998 35 3 Image Chart
1996 11 14 00 14.6 115.0 998 35 3 Image Chart
1996 11 14 06 13.9 113.9 998 35 3 Image Chart
1996 11 14 12 13.1 112.9 1002 0 2 Image Chart
1996 11 14 18 12.4 112.4 1008 0 2 Image Chart
1996 11 15 00 11.4 111.4 1008 0 2 Image Chart
1996 11 15 06 10.8 110.8 1008 0 2 Image Chart
1996 11 15 12 10.5 109.9 1008 0 2 Image Chart
1996 11 15 18 10.2 109.0 1008 0 2 Image Chart
1996 11 16 00 9.6 108.2 1008 0 2 Image Chart
1996 11 16 06 9.8 107.0 1008 0 2 Image Chart
1996 11 16 12 10.4 105.6 1008 0 2 Image Chart
Japan Meteorological Agency Best Track Data | Correction Date : 1997-01-07
< Typhoon 199624 1996 Season Typhoon 199626 >

Help